sensor_id;sensor_type;location;lat;lon;timestamp;P1;durP1;ratioP1;P2;durP2;ratioP2
78622;SDS011;67943;54.412;9.502;2023-12-20T00:02:50;17.02;;;2.10;;
78622;SDS011;67943;54.412;9.502;2023-12-20T00:07:53;18.13;;;2.22;;
78622;SDS011;67943;54.412;9.502;2023-12-20T00:12:54;16.52;;;2.42;;
78622;SDS011;67943;54.412;9.502;2023-12-20T00:17:56;18.88;;;2.40;;
78622;SDS011;67943;54.412;9.502;2023-12-20T00:22:59;17.90;;;2.22;;
78622;SDS011;67943;54.412;9.502;2023-12-20T00:28:00;20.20;;;2.67;;
78622;SDS011;67943;54.412;9.502;2023-12-20T00:33:02;21.48;;;2.85;;
78622;SDS011;67943;54.412;9.502;2023-12-20T00:38:05;16.77;;;2.00;;
78622;SDS011;67943;54.412;9.502;2023-12-20T00:43:08;18.67;;;2.28;;
78622;SDS011;67943;54.412;9.502;2023-12-20T00:48:10;16.98;;;2.53;;
78622;SDS011;67943;54.412;9.502;2023-12-20T00:53:13;17.75;;;2.00;;
78622;SDS011;67943;54.412;9.502;2023-12-20T00:58:14;13.15;;;2.03;;
78622;SDS011;67943;54.412;9.502;2023-12-20T01:03:16;13.75;;;1.95;;
78622;SDS011;67943;54.412;9.502;2023-12-20T01:08:18;11.25;;;1.60;;
78622;SDS011;67943;54.412;9.502;2023-12-20T01:13:20;6.35;;;1.13;;
78622;SDS011;67943;54.412;9.502;2023-12-20T01:18:21;14.52;;;1.55;;
78622;SDS011;67943;54.412;9.502;2023-12-20T01:23:24;12.23;;;1.75;;
78622;SDS011;67943;54.412;9.502;2023-12-20T01:28:26;12.73;;;1.90;;
78622;SDS011;67943;54.412;9.502;2023-12-20T01:33:28;11.68;;;1.67;;
78622;SDS011;67943;54.412;9.502;2023-12-20T01:38:30;9.77;;;1.92;;
78622;SDS011;67943;54.412;9.502;2023-12-20T01:43:32;15.70;;;2.03;;
78622;SDS011;67943;54.412;9.502;2023-12-20T01:48:33;13.35;;;2.42;;
78622;SDS011;67943;54.412;9.502;2023-12-20T01:53:38;20.30;;;2.03;;
78622;SDS011;67943;54.412;9.502;2023-12-20T01:58:42;11.98;;;1.77;;
78622;SDS011;67943;54.412;9.502;2023-12-20T02:03:45;13.13;;;2.08;;
78622;SDS011;67943;54.412;9.502;2023-12-20T02:08:48;14.95;;;2.55;;
78622;SDS011;67943;54.412;9.502;2023-12-20T02:13:50;15.40;;;2.60;;
78622;SDS011;67943;54.412;9.502;2023-12-20T02:18:52;23.77;;;2.40;;
78622;SDS011;67943;54.412;9.502;2023-12-20T02:23:55;21.23;;;2.83;;
78622;SDS011;67943;54.412;9.502;2023-12-20T02:28:56;27.27;;;3.22;;
78622;SDS011;67943;54.412;9.502;2023-12-20T02:33:58;20.13;;;2.80;;
78622;SDS011;67943;54.412;9.502;2023-12-20T02:39:01;19.52;;;2.47;;
78622;SDS011;67943;54.412;9.502;2023-12-20T02:44:03;12.45;;;1.85;;
78622;SDS011;67943;54.412;9.502;2023-12-20T02:49:05;15.60;;;2.65;;
78622;SDS011;67943;54.412;9.502;2023-12-20T02:54:08;18.75;;;2.78;;
78622;SDS011;67943;54.412;9.502;2023-12-20T02:59:09;21.10;;;2.30;;
78622;SDS011;67943;54.412;9.502;2023-12-20T03:04:11;19.50;;;2.50;;
78622;SDS011;67943;54.412;9.502;2023-12-20T03:09:14;14.00;;;2.17;;
78622;SDS011;67943;54.412;9.502;2023-12-20T03:14:16;18.40;;;2.67;;
78622;SDS011;67943;54.412;9.502;2023-12-20T03:19:17;17.58;;;2.50;;
78622;SDS011;67943;54.412;9.502;2023-12-20T03:24:21;15.15;;;2.42;;
78622;SDS011;67943;54.412;9.502;2023-12-20T03:29:22;13.70;;;2.38;;
78622;SDS011;67943;54.412;9.502;2023-12-20T03:34:24;17.88;;;2.63;;
78622;SDS011;67943;54.412;9.502;2023-12-20T03:39:27;24.55;;;3.00;;
78622;SDS011;67943;54.412;9.502;2023-12-20T03:44:28;14.43;;;2.88;;
78622;SDS011;67943;54.412;9.502;2023-12-20T03:49:30;16.38;;;2.33;;
78622;SDS011;67943;54.412;9.502;2023-12-20T03:54:32;15.02;;;2.78;;
78622;SDS011;67943;54.412;9.502;2023-12-20T03:59:34;19.98;;;2.90;;
78622;SDS011;67943;54.412;9.502;2023-12-20T04:04:36;14.93;;;2.88;;
78622;SDS011;67943;54.412;9.502;2023-12-20T04:09:39;19.05;;;3.10;;
78622;SDS011;67943;54.412;9.502;2023-12-20T04:14:41;19.80;;;2.92;;
78622;SDS011;67943;54.412;9.502;2023-12-20T04:19:43;26.60;;;3.45;;
78622;SDS011;67943;54.412;9.502;2023-12-20T04:24:46;23.98;;;3.35;;
78622;SDS011;67943;54.412;9.502;2023-12-20T04:29:47;21.65;;;2.88;;
78622;SDS011;67943;54.412;9.502;2023-12-20T04:34:49;28.00;;;4.15;;
78622;SDS011;67943;54.412;9.502;2023-12-20T04:39:52;25.75;;;3.35;;
78622;SDS011;67943;54.412;9.502;2023-12-20T04:44:53;28.70;;;3.67;;
78622;SDS011;67943;54.412;9.502;2023-12-20T04:49:55;26.65;;;3.92;;
78622;SDS011;67943;54.412;9.502;2023-12-20T04:54:57;14.35;;;2.45;;
78622;SDS011;67943;54.412;9.502;2023-12-20T04:59:59;16.77;;;2.47;;
78622;SDS011;67943;54.412;9.502;2023-12-20T05:05:01;11.10;;;1.90;;
78622;SDS011;67943;54.412;9.502;2023-12-20T05:10:04;11.88;;;2.30;;
78622;SDS011;67943;54.412;9.502;2023-12-20T05:15:08;9.52;;;2.08;;
78622;SDS011;67943;54.412;9.502;2023-12-20T05:20:10;24.80;;;5.15;;
78622;SDS011;67943;54.412;9.502;2023-12-20T05:25:13;16.65;;;3.20;;
78622;SDS011;67943;54.412;9.502;2023-12-20T05:30:14;22.50;;;3.90;;
78622;SDS011;67943;54.412;9.502;2023-12-20T05:35:16;21.42;;;3.55;;
78622;SDS011;67943;54.412;9.502;2023-12-20T05:40:19;27.55;;;3.85;;
78622;SDS011;67943;54.412;9.502;2023-12-20T05:45:20;25.33;;;4.40;;
78622;SDS011;67943;54.412;9.502;2023-12-20T05:50:22;20.17;;;4.18;;
78622;SDS011;67943;54.412;9.502;2023-12-20T06:00:26;30.50;;;5.00;;
78622;SDS011;67943;54.412;9.502;2023-12-20T06:10:30;18.70;;;2.53;;
78622;SDS011;67943;54.412;9.502;2023-12-20T06:15:32;25.30;;;4.05;;
78622;SDS011;67943;54.412;9.502;2023-12-20T06:20:33;20.52;;;3.58;;
78622;SDS011;67943;54.412;9.502;2023-12-20T06:30:37;19.08;;;3.15;;
78622;SDS011;67943;54.412;9.502;2023-12-20T06:35:39;14.88;;;3.20;;
78622;SDS011;67943;54.412;9.502;2023-12-20T06:40:42;23.65;;;2.72;;
78622;SDS011;67943;54.412;9.502;2023-12-20T06:45:43;16.08;;;3.00;;
78622;SDS011;67943;54.412;9.502;2023-12-20T06:50:45;16.27;;;3.03;;
78622;SDS011;67943;54.412;9.502;2023-12-20T07:00:49;20.88;;;2.78;;
78622;SDS011;67943;54.412;9.502;2023-12-20T07:05:51;19.02;;;2.90;;
78622;SDS011;67943;54.412;9.502;2023-12-20T07:10:54;23.83;;;2.83;;
78622;SDS011;67943;54.412;9.502;2023-12-20T07:15:56;30.13;;;3.45;;
78622;SDS011;67943;54.412;9.502;2023-12-20T07:20:57;19.23;;;3.03;;
78622;SDS011;67943;54.412;9.502;2023-12-20T07:26:00;27.33;;;4.07;;
78622;SDS011;67943;54.412;9.502;2023-12-20T07:31:01;19.70;;;3.72;;
78622;SDS011;67943;54.412;9.502;2023-12-20T07:36:03;29.45;;;3.50;;
78622;SDS011;67943;54.412;9.502;2023-12-20T07:41:06;28.67;;;4.35;;
78622;SDS011;67943;54.412;9.502;2023-12-20T07:46:10;30.92;;;3.95;;
78622;SDS011;67943;54.412;9.502;2023-12-20T07:51:11;24.70;;;4.32;;
78622;SDS011;67943;54.412;9.502;2023-12-20T07:56:15;24.08;;;4.30;;
78622;SDS011;67943;54.412;9.502;2023-12-20T08:01:17;19.08;;;3.03;;
78622;SDS011;67943;54.412;9.502;2023-12-20T08:06:19;13.45;;;1.52;;
78622;SDS011;67943;54.412;9.502;2023-12-20T08:11:23;5.32;;;1.10;;
78622;SDS011;67943;54.412;9.502;2023-12-20T08:16:25;7.18;;;1.05;;
78622;SDS011;67943;54.412;9.502;2023-12-20T08:21:26;5.47;;;1.08;;
78622;SDS011;67943;54.412;9.502;2023-12-20T08:26:29;8.65;;;1.30;;
78622;SDS011;67943;54.412;9.502;2023-12-20T08:31:31;3.75;;;0.93;;
78622;SDS011;67943;54.412;9.502;2023-12-20T08:36:32;6.75;;;1.05;;
78622;SDS011;67943;54.412;9.502;2023-12-20T08:41:36;4.82;;;0.93;;
78622;SDS011;67943;54.412;9.502;2023-12-20T08:46:37;5.45;;;1.02;;
78622;SDS011;67943;54.412;9.502;2023-12-20T08:51:39;5.68;;;1.17;;
78622;SDS011;67943;54.412;9.502;2023-12-20T08:56:42;11.02;;;1.85;;
78622;SDS011;67943;54.412;9.502;2023-12-20T09:01:44;5.03;;;1.00;;
78622;SDS011;67943;54.412;9.502;2023-12-20T09:06:46;10.68;;;2.13;;
78622;SDS011;67943;54.412;9.502;2023-12-20T09:11:49;10.73;;;2.10;;
78622;SDS011;67943;54.412;9.502;2023-12-20T09:16:51;7.95;;;1.17;;
78622;SDS011;67943;54.412;9.502;2023-12-20T09:21:55;11.30;;;1.40;;
78622;SDS011;67943;54.412;9.502;2023-12-20T09:32:00;13.05;;;1.50;;
78622;SDS011;67943;54.412;9.502;2023-12-20T09:37:01;7.63;;;1.25;;
78622;SDS011;67943;54.412;9.502;2023-12-20T09:42:05;14.82;;;1.23;;
78622;SDS011;67943;54.412;9.502;2023-12-20T09:47:07;10.90;;;1.38;;
78622;SDS011;67943;54.412;9.502;2023-12-20T09:52:09;10.68;;;1.75;;
78622;SDS011;67943;54.412;9.502;2023-12-20T09:57:15;12.38;;;1.73;;
78622;SDS011;67943;54.412;9.502;2023-12-20T10:02:16;7.30;;;1.52;;
78622;SDS011;67943;54.412;9.502;2023-12-20T10:07:22;17.30;;;1.88;;
78622;SDS011;67943;54.412;9.502;2023-12-20T10:12:25;11.45;;;1.27;;
78622;SDS011;67943;54.412;9.502;2023-12-20T10:17:27;7.93;;;1.58;;
78622;SDS011;67943;54.412;9.502;2023-12-20T10:22:30;15.55;;;2.67;;
78622;SDS011;67943;54.412;9.502;2023-12-20T10:27:32;12.43;;;2.28;;
78622;SDS011;67943;54.412;9.502;2023-12-20T10:32:34;8.18;;;1.25;;
78622;SDS011;67943;54.412;9.502;2023-12-20T10:37:36;6.80;;;1.23;;
78622;SDS011;67943;54.412;9.502;2023-12-20T10:42:39;6.72;;;1.67;;
78622;SDS011;67943;54.412;9.502;2023-12-20T10:47:41;8.82;;;2.08;;
78622;SDS011;67943;54.412;9.502;2023-12-20T10:52:44;10.85;;;1.70;;
78622;SDS011;67943;54.412;9.502;2023-12-20T10:57:49;11.02;;;1.40;;
78622;SDS011;67943;54.412;9.502;2023-12-20T11:02:51;9.70;;;1.80;;
78622;SDS011;67943;54.412;9.502;2023-12-20T11:07:55;15.00;;;2.45;;
78622;SDS011;67943;54.412;9.502;2023-12-20T11:13:08;11.45;;;2.20;;
78622;SDS011;67943;54.412;9.502;2023-12-20T11:18:13;13.20;;;2.28;;
78622;SDS011;67943;54.412;9.502;2023-12-20T11:23:16;18.48;;;2.60;;
78622;SDS011;67943;54.412;9.502;2023-12-20T11:28:22;9.05;;;2.10;;
78622;SDS011;67943;54.412;9.502;2023-12-20T11:33:25;14.73;;;2.45;;
78622;SDS011;67943;54.412;9.502;2023-12-20T11:38:27;15.57;;;2.40;;
78622;SDS011;67943;54.412;9.502;2023-12-20T11:43:30;11.43;;;2.97;;
78622;SDS011;67943;54.412;9.502;2023-12-20T11:48:34;22.05;;;2.50;;
78622;SDS011;67943;54.412;9.502;2023-12-20T11:53:36;10.38;;;2.08;;
78622;SDS011;67943;54.412;9.502;2023-12-20T11:58:39;15.88;;;2.55;;
78622;SDS011;67943;54.412;9.502;2023-12-20T12:03:41;13.95;;;2.90;;
78622;SDS011;67943;54.412;9.502;2023-12-20T12:08:43;15.80;;;2.92;;
78622;SDS011;67943;54.412;9.502;2023-12-20T12:13:46;12.05;;;3.33;;
78622;SDS011;67943;54.412;9.502;2023-12-20T12:18:54;18.00;;;3.10;;
78622;SDS011;67943;54.412;9.502;2023-12-20T12:24:05;14.63;;;3.53;;
78622;SDS011;67943;54.412;9.502;2023-12-20T12:29:09;10.65;;;2.55;;
78622;SDS011;67943;54.412;9.502;2023-12-20T12:34:11;17.95;;;3.45;;
78622;SDS011;67943;54.412;9.502;2023-12-20T12:39:12;12.25;;;2.88;;
78622;SDS011;67943;54.412;9.502;2023-12-20T12:44:17;17.85;;;3.72;;
78622;SDS011;67943;54.412;9.502;2023-12-20T12:49:19;17.50;;;3.17;;
78622;SDS011;67943;54.412;9.502;2023-12-20T12:54:21;20.10;;;3.45;;
78622;SDS011;67943;54.412;9.502;2023-12-20T12:59:25;18.38;;;3.50;;
78622;SDS011;67943;54.412;9.502;2023-12-20T13:04:27;10.38;;;2.95;;
78622;SDS011;67943;54.412;9.502;2023-12-20T13:09:28;9.63;;;2.55;;
78622;SDS011;67943;54.412;9.502;2023-12-20T13:14:32;15.57;;;3.38;;
78622;SDS011;67943;54.412;9.502;2023-12-20T13:19:34;15.00;;;3.33;;
78622;SDS011;67943;54.412;9.502;2023-12-20T13:24:36;15.30;;;3.38;;
78622;SDS011;67943;54.412;9.502;2023-12-20T13:29:39;18.15;;;3.83;;
78622;SDS011;67943;54.412;9.502;2023-12-20T13:34:40;14.35;;;3.88;;
78622;SDS011;67943;54.412;9.502;2023-12-20T13:39:42;15.07;;;4.05;;
78622;SDS011;67943;54.412;9.502;2023-12-20T13:44:45;11.88;;;3.45;;
78622;SDS011;67943;54.412;9.502;2023-12-20T13:49:48;17.42;;;4.40;;
78622;SDS011;67943;54.412;9.502;2023-12-20T13:54:49;13.15;;;4.38;;
78622;SDS011;67943;54.412;9.502;2023-12-20T13:59:52;17.05;;;4.85;;
78622;SDS011;67943;54.412;9.502;2023-12-20T14:04:55;14.88;;;4.07;;
78622;SDS011;67943;54.412;9.502;2023-12-20T14:09:56;16.60;;;5.13;;
78622;SDS011;67943;54.412;9.502;2023-12-20T14:15:00;19.00;;;7.03;;
78622;SDS011;67943;54.412;9.502;2023-12-20T14:20:02;19.20;;;4.50;;
78622;SDS011;67943;54.412;9.502;2023-12-20T14:25:05;20.00;;;5.07;;
78622;SDS011;67943;54.412;9.502;2023-12-20T14:30:10;21.70;;;7.55;;
78622;SDS011;67943;54.412;9.502;2023-12-20T14:35:14;22.45;;;6.13;;
78622;SDS011;67943;54.412;9.502;2023-12-20T14:40:16;29.40;;;6.32;;
78622;SDS011;67943;54.412;9.502;2023-12-20T14:45:19;28.50;;;5.63;;
78622;SDS011;67943;54.412;9.502;2023-12-20T14:50:20;19.25;;;5.95;;
78622;SDS011;67943;54.412;9.502;2023-12-20T14:55:22;23.30;;;6.35;;
78622;SDS011;67943;54.412;9.502;2023-12-20T15:00:24;20.65;;;6.30;;
78622;SDS011;67943;54.412;9.502;2023-12-20T15:05:26;23.67;;;5.75;;
78622;SDS011;67943;54.412;9.502;2023-12-20T15:10:28;25.13;;;6.53;;
78622;SDS011;67943;54.412;9.502;2023-12-20T15:15:31;27.85;;;6.22;;
78622;SDS011;67943;54.412;9.502;2023-12-20T15:20:33;26.05;;;6.43;;
78622;SDS011;67943;54.412;9.502;2023-12-20T15:25:36;23.90;;;5.30;;
78622;SDS011;67943;54.412;9.502;2023-12-20T15:30:39;31.85;;;5.47;;
78622;SDS011;67943;54.412;9.502;2023-12-20T15:35:41;20.88;;;5.50;;
78622;SDS011;67943;54.412;9.502;2023-12-20T15:40:43;24.17;;;5.45;;
78622;SDS011;67943;54.412;9.502;2023-12-20T15:45:46;18.85;;;6.75;;
78622;SDS011;67943;54.412;9.502;2023-12-20T15:50:47;19.80;;;6.47;;
78622;SDS011;67943;54.412;9.502;2023-12-20T15:55:49;21.75;;;5.10;;
78622;SDS011;67943;54.412;9.502;2023-12-20T16:00:52;18.27;;;5.35;;
78622;SDS011;67943;54.412;9.502;2023-12-20T16:05:54;19.75;;;5.20;;
78622;SDS011;67943;54.412;9.502;2023-12-20T16:10:55;15.57;;;5.10;;
78622;SDS011;67943;54.412;9.502;2023-12-20T16:16:00;13.75;;;3.95;;
78622;SDS011;67943;54.412;9.502;2023-12-20T16:21:02;12.23;;;5.60;;
78622;SDS011;67943;54.412;9.502;2023-12-20T16:26:04;11.98;;;4.75;;
78622;SDS011;67943;54.412;9.502;2023-12-20T16:31:07;15.10;;;4.65;;
78622;SDS011;67943;54.412;9.502;2023-12-20T16:36:08;13.10;;;4.43;;
78622;SDS011;67943;54.412;9.502;2023-12-20T16:41:10;17.50;;;4.45;;
78622;SDS011;67943;54.412;9.502;2023-12-20T16:46:13;14.50;;;4.65;;
78622;SDS011;67943;54.412;9.502;2023-12-20T16:51:14;26.38;;;4.88;;
78622;SDS011;67943;54.412;9.502;2023-12-20T16:56:16;19.88;;;5.35;;
78622;SDS011;67943;54.412;9.502;2023-12-20T17:01:19;18.10;;;4.07;;
78622;SDS011;67943;54.412;9.502;2023-12-20T17:06:22;39.28;;;9.98;;
78622;SDS011;67943;54.412;9.502;2023-12-20T17:11:25;22.80;;;6.47;;
78622;SDS011;67943;54.412;9.502;2023-12-20T17:16:28;21.27;;;6.28;;
78622;SDS011;67943;54.412;9.502;2023-12-20T17:21:29;21.73;;;4.68;;
78622;SDS011;67943;54.412;9.502;2023-12-20T17:26:31;21.77;;;4.90;;
78622;SDS011;67943;54.412;9.502;2023-12-20T17:31:34;17.23;;;4.80;;
78622;SDS011;67943;54.412;9.502;2023-12-20T17:36:36;19.73;;;4.35;;
78622;SDS011;67943;54.412;9.502;2023-12-20T17:41:38;22.17;;;4.03;;
78622;SDS011;67943;54.412;9.502;2023-12-20T17:46:40;16.98;;;3.63;;
78622;SDS011;67943;54.412;9.502;2023-12-20T17:51:42;19.73;;;3.15;;
78622;SDS011;67943;54.412;9.502;2023-12-20T18:01:48;14.02;;;2.45;;
78622;SDS011;67943;54.412;9.502;2023-12-20T18:06:49;16.27;;;2.97;;
78622;SDS011;67943;54.412;9.502;2023-12-20T18:11:51;21.27;;;3.22;;
78622;SDS011;67943;54.412;9.502;2023-12-20T18:16:54;9.90;;;1.92;;
78622;SDS011;67943;54.412;9.502;2023-12-20T18:21:55;11.27;;;1.73;;
78622;SDS011;67943;54.412;9.502;2023-12-20T18:26:57;5.90;;;1.20;;
78622;SDS011;67943;54.412;9.502;2023-12-20T18:32:00;7.25;;;1.75;;
78622;SDS011;67943;54.412;9.502;2023-12-20T18:37:02;9.60;;;1.75;;
78622;SDS011;67943;54.412;9.502;2023-12-20T18:42:06;8.52;;;1.55;;
78622;SDS011;67943;54.412;9.502;2023-12-20T18:47:09;8.63;;;1.35;;
78622;SDS011;67943;54.412;9.502;2023-12-20T18:52:11;10.98;;;2.15;;
78622;SDS011;67943;54.412;9.502;2023-12-20T19:02:15;13.23;;;4.37;;
78622;SDS011;67943;54.412;9.502;2023-12-20T19:07:18;9.77;;;2.00;;
78622;SDS011;67943;54.412;9.502;2023-12-20T19:12:19;9.73;;;2.35;;
78622;SDS011;67943;54.412;9.502;2023-12-20T19:17:22;9.82;;;2.65;;
78622;SDS011;67943;54.412;9.502;2023-12-20T19:22:25;15.88;;;2.53;;
78622;SDS011;67943;54.412;9.502;2023-12-20T19:27:28;12.40;;;3.83;;
78622;SDS011;67943;54.412;9.502;2023-12-20T19:32:31;11.25;;;2.40;;
78622;SDS011;67943;54.412;9.502;2023-12-20T19:37:33;6.65;;;2.30;;
78622;SDS011;67943;54.412;9.502;2023-12-20T19:42:34;8.82;;;1.42;;
78622;SDS011;67943;54.412;9.502;2023-12-20T19:47:39;6.22;;;1.48;;
78622;SDS011;67943;54.412;9.502;2023-12-20T19:52:40;11.60;;;2.80;;
78622;SDS011;67943;54.412;9.502;2023-12-20T19:57:42;14.50;;;3.33;;
78622;SDS011;67943;54.412;9.502;2023-12-20T20:02:45;10.57;;;1.75;;
78622;SDS011;67943;54.412;9.502;2023-12-20T20:07:47;13.27;;;2.80;;
78622;SDS011;67943;54.412;9.502;2023-12-20T20:12:48;15.25;;;2.42;;
78622;SDS011;67943;54.412;9.502;2023-12-20T20:17:51;17.10;;;2.95;;
78622;SDS011;67943;54.412;9.502;2023-12-20T20:22:53;14.55;;;2.03;;
78622;SDS011;67943;54.412;9.502;2023-12-20T20:27:54;14.35;;;2.03;;
78622;SDS011;67943;54.412;9.502;2023-12-20T20:32:57;13.18;;;2.42;;
78622;SDS011;67943;54.412;9.502;2023-12-20T20:37:58;15.45;;;2.00;;
78622;SDS011;67943;54.412;9.502;2023-12-20T20:43:00;13.15;;;1.90;;
78622;SDS011;67943;54.412;9.502;2023-12-20T20:48:03;17.77;;;2.15;;
78622;SDS011;67943;54.412;9.502;2023-12-20T20:53:05;17.02;;;2.28;;
78622;SDS011;67943;54.412;9.502;2023-12-20T20:58:07;17.67;;;2.10;;
78622;SDS011;67943;54.412;9.502;2023-12-20T21:03:10;16.75;;;2.33;;
78622;SDS011;67943;54.412;9.502;2023-12-20T21:08:11;11.98;;;2.20;;
78622;SDS011;67943;54.412;9.502;2023-12-20T21:13:13;12.57;;;2.13;;
78622;SDS011;67943;54.412;9.502;2023-12-20T21:18:16;13.65;;;2.10;;
78622;SDS011;67943;54.412;9.502;2023-12-20T21:23:17;12.57;;;1.98;;
78622;SDS011;67943;54.412;9.502;2023-12-20T21:28:19;10.85;;;2.45;;
78622;SDS011;67943;54.412;9.502;2023-12-20T21:33:21;7.45;;;2.33;;
78622;SDS011;67943;54.412;9.502;2023-12-20T21:38:23;8.95;;;1.40;;
78622;SDS011;67943;54.412;9.502;2023-12-20T21:43:24;7.90;;;1.52;;
78622;SDS011;67943;54.412;9.502;2023-12-20T21:48:27;6.30;;;1.27;;
78622;SDS011;67943;54.412;9.502;2023-12-20T21:53:29;5.95;;;1.08;;
78622;SDS011;67943;54.412;9.502;2023-12-20T21:58:30;4.20;;;0.90;;
78622;SDS011;67943;54.412;9.502;2023-12-20T22:03:33;5.85;;;1.35;;
78622;SDS011;67943;54.412;9.502;2023-12-20T22:08:35;6.40;;;1.35;;
78622;SDS011;67943;54.412;9.502;2023-12-20T22:13:36;3.88;;;1.10;;
78622;SDS011;67943;54.412;9.502;2023-12-20T22:18:39;6.10;;;1.27;;
78622;SDS011;67943;54.412;9.502;2023-12-20T22:23:41;5.22;;;1.30;;
78622;SDS011;67943;54.412;9.502;2023-12-20T22:28:42;3.50;;;0.93;;
78622;SDS011;67943;54.412;9.502;2023-12-20T22:33:45;5.03;;;1.00;;
78622;SDS011;67943;54.412;9.502;2023-12-20T22:38:46;3.90;;;1.17;;
78622;SDS011;67943;54.412;9.502;2023-12-20T22:43:49;1.90;;;0.60;;
78622;SDS011;67943;54.412;9.502;2023-12-20T22:48:52;2.33;;;1.00;;
78622;SDS011;67943;54.412;9.502;2023-12-20T22:53:53;8.02;;;1.60;;
78622;SDS011;67943;54.412;9.502;2023-12-20T22:58:56;5.40;;;1.35;;
78622;SDS011;67943;54.412;9.502;2023-12-20T23:03:59;7.57;;;1.35;;
78622;SDS011;67943;54.412;9.502;2023-12-20T23:09:01;4.95;;;1.20;;
78622;SDS011;67943;54.412;9.502;2023-12-20T23:14:03;4.88;;;1.33;;
78622;SDS011;67943;54.412;9.502;2023-12-20T23:19:05;5.18;;;1.75;;
78622;SDS011;67943;54.412;9.502;2023-12-20T23:24:08;3.80;;;1.27;;
78622;SDS011;67943;54.412;9.502;2023-12-20T23:29:09;5.32;;;1.50;;
78622;SDS011;67943;54.412;9.502;2023-12-20T23:34:13;3.58;;;1.40;;
78622;SDS011;67943;54.412;9.502;2023-12-20T23:39:15;4.95;;;1.75;;
78622;SDS011;67943;54.412;9.502;2023-12-20T23:44:17;4.18;;;1.70;;
78622;SDS011;67943;54.412;9.502;2023-12-20T23:49:20;6.93;;;2.25;;
78622;SDS011;67943;54.412;9.502;2023-12-20T23:54:22;7.00;;;2.25;;
78622;SDS011;67943;54.412;9.502;2023-12-20T23:59:23;4.63;;;2.30;;
